sensor_id;sensor_type;location;lat;lon;timestamp;P1;durP1;ratioP1;P2;durP2;ratioP2
15443;SDS011;7822;48.146;11.576;2023-04-10T00:00:10;4.97;;;4.57;;
15443;SDS011;7822;48.146;11.576;2023-04-10T00:02:38;4.07;;;3.77;;
15443;SDS011;7822;48.146;11.576;2023-04-10T00:05:06;4.90;;;4.50;;
15443;SDS011;7822;48.146;11.576;2023-04-10T00:07:34;4.40;;;4.10;;
15443;SDS011;7822;48.146;11.576;2023-04-10T00:10:02;4.70;;;4.30;;
15443;SDS011;7822;48.146;11.576;2023-04-10T00:12:32;4.93;;;4.53;;
15443;SDS011;7822;48.146;11.576;2023-04-10T00:14:59;4.70;;;4.30;;
15443;SDS011;7822;48.146;11.576;2023-04-10T00:17:27;4.60;;;4.20;;
15443;SDS011;7822;48.146;11.576;2023-04-10T00:19:55;4.83;;;4.43;;
15443;SDS011;7822;48.146;11.576;2023-04-10T00:22:24;4.30;;;4.00;;
15443;SDS011;7822;48.146;11.576;2023-04-10T00:24:52;4.60;;;4.20;;
15443;SDS011;7822;48.146;11.576;2023-04-10T00:27:19;4.83;;;4.33;;
15443;SDS011;7822;48.146;11.576;2023-04-10T00:29:48;4.63;;;4.23;;
15443;SDS011;7822;48.146;11.576;2023-04-10T00:32:16;4.50;;;4.20;;
15443;SDS011;7822;48.146;11.576;2023-04-10T00:34:44;4.70;;;4.30;;
15443;SDS011;7822;48.146;11.576;2023-04-10T00:37:11;5.03;;;4.53;;
15443;SDS011;7822;48.146;11.576;2023-04-10T00:39:39;5.10;;;4.70;;
15443;SDS011;7822;48.146;11.576;2023-04-10T00:42:06;4.13;;;3.83;;
15443;SDS011;7822;48.146;11.576;2023-04-10T00:44:35;4.53;;;4.13;;
15443;SDS011;7822;48.146;11.576;2023-04-10T00:47:04;4.40;;;4.00;;
15443;SDS011;7822;48.146;11.576;2023-04-10T00:49:33;4.33;;;3.93;;
15443;SDS011;7822;48.146;11.576;2023-04-10T00:52:01;5.40;;;4.90;;
15443;SDS011;7822;48.146;11.576;2023-04-10T00:54:29;4.67;;;4.27;;
15443;SDS011;7822;48.146;11.576;2023-04-10T00:56:58;4.80;;;4.40;;
15443;SDS011;7822;48.146;11.576;2023-04-10T00:59:25;4.50;;;4.10;;
15443;SDS011;7822;48.146;11.576;2023-04-10T01:01:53;4.50;;;4.10;;
15443;SDS011;7822;48.146;11.576;2023-04-10T01:04:23;4.23;;;3.83;;
15443;SDS011;7822;48.146;11.576;2023-04-10T01:06:53;4.10;;;3.70;;
15443;SDS011;7822;48.146;11.576;2023-04-10T01:09:30;4.30;;;3.90;;
15443;SDS011;7822;48.146;11.576;2023-04-10T01:12:05;4.50;;;4.10;;
15443;SDS011;7822;48.146;11.576;2023-04-10T01:14:40;3.93;;;3.63;;
15443;SDS011;7822;48.146;11.576;2023-04-10T01:17:15;4.77;;;4.17;;
15443;SDS011;7822;48.146;11.576;2023-04-10T01:19:56;4.20;;;3.90;;
15443;SDS011;7822;48.146;11.576;2023-04-10T01:22:40;4.40;;;4.00;;
15443;SDS011;7822;48.146;11.576;2023-04-10T01:25:23;4.40;;;4.00;;
15443;SDS011;7822;48.146;11.576;2023-04-10T01:28:07;4.67;;;4.27;;
15443;SDS011;7822;48.146;11.576;2023-04-10T01:30:49;4.60;;;4.30;;
15443;SDS011;7822;48.146;11.576;2023-04-10T01:33:19;4.50;;;4.10;;
15443;SDS011;7822;48.146;11.576;2023-04-10T01:35:49;4.60;;;4.20;;
15443;SDS011;7822;48.146;11.576;2023-04-10T01:38:20;4.07;;;3.77;;
15443;SDS011;7822;48.146;11.576;2023-04-10T01:40:51;4.60;;;4.20;;
15443;SDS011;7822;48.146;11.576;2023-04-10T01:43:21;4.20;;;3.90;;
15443;SDS011;7822;48.146;11.576;2023-04-10T01:45:52;4.20;;;3.80;;
15443;SDS011;7822;48.146;11.576;2023-04-10T01:48:20;4.30;;;3.90;;
15443;SDS011;7822;48.146;11.576;2023-04-10T01:50:48;4.10;;;3.70;;
15443;SDS011;7822;48.146;11.576;2023-04-10T01:53:17;3.73;;;3.43;;
15443;SDS011;7822;48.146;11.576;2023-04-10T01:55:46;3.83;;;3.53;;
15443;SDS011;7822;48.146;11.576;2023-04-10T01:58:14;3.93;;;3.63;;
15443;SDS011;7822;48.146;11.576;2023-04-10T02:00:42;4.30;;;3.90;;
15443;SDS011;7822;48.146;11.576;2023-04-10T02:03:11;4.17;;;3.87;;
15443;SDS011;7822;48.146;11.576;2023-04-10T02:05:41;4.27;;;3.90;;
15443;SDS011;7822;48.146;11.576;2023-04-10T02:08:17;4.20;;;3.90;;
15443;SDS011;7822;48.146;11.576;2023-04-10T02:10:53;4.50;;;4.10;;
15443;SDS011;7822;48.146;11.576;2023-04-10T02:13:26;3.97;;;3.67;;
15443;SDS011;7822;48.146;11.576;2023-04-10T02:15:55;4.27;;;3.97;;
15443;SDS011;7822;48.146;11.576;2023-04-10T02:18:30;3.87;;;3.57;;
15443;SDS011;7822;48.146;11.576;2023-04-10T02:21:00;3.83;;;3.53;;
15443;SDS011;7822;48.146;11.576;2023-04-10T02:23:28;3.73;;;3.47;;
15443;SDS011;7822;48.146;11.576;2023-04-10T02:25:56;3.90;;;3.60;;
15443;SDS011;7822;48.146;11.576;2023-04-10T02:28:24;3.73;;;3.43;;
15443;SDS011;7822;48.146;11.576;2023-04-10T02:30:52;3.80;;;3.50;;
15443;SDS011;7822;48.146;11.576;2023-04-10T02:33:19;4.03;;;3.70;;
15443;SDS011;7822;48.146;11.576;2023-04-10T02:35:48;4.00;;;3.70;;
15443;SDS011;7822;48.146;11.576;2023-04-10T02:38:16;3.70;;;3.40;;
15443;SDS011;7822;48.146;11.576;2023-04-10T02:40:44;4.10;;;3.80;;
15443;SDS011;7822;48.146;11.576;2023-04-10T02:43:12;3.90;;;3.60;;
15443;SDS011;7822;48.146;11.576;2023-04-10T02:45:39;4.17;;;3.77;;
15443;SDS011;7822;48.146;11.576;2023-04-10T02:48:07;4.07;;;3.77;;
15443;SDS011;7822;48.146;11.576;2023-04-10T02:50:36;4.00;;;3.70;;
15443;SDS011;7822;48.146;11.576;2023-04-10T02:53:05;3.87;;;3.50;;
15443;SDS011;7822;48.146;11.576;2023-04-10T02:55:33;3.57;;;3.30;;
15443;SDS011;7822;48.146;11.576;2023-04-10T02:58:00;3.87;;;3.57;;
15443;SDS011;7822;48.146;11.576;2023-04-10T03:00:28;3.63;;;3.33;;
15443;SDS011;7822;48.146;11.576;2023-04-10T03:02:56;4.10;;;3.80;;
15443;SDS011;7822;48.146;11.576;2023-04-10T03:05:24;4.20;;;3.83;;
15443;SDS011;7822;48.146;11.576;2023-04-10T03:07:52;3.67;;;3.37;;
15443;SDS011;7822;48.146;11.576;2023-04-10T03:10:21;3.40;;;3.20;;
15443;SDS011;7822;48.146;11.576;2023-04-10T03:12:49;3.77;;;3.47;;
15443;SDS011;7822;48.146;11.576;2023-04-10T03:15:17;3.80;;;3.50;;
15443;SDS011;7822;48.146;11.576;2023-04-10T03:17:45;4.00;;;3.67;;
15443;SDS011;7822;48.146;11.576;2023-04-10T03:20:13;3.67;;;3.37;;
15443;SDS011;7822;48.146;11.576;2023-04-10T03:22:41;3.37;;;3.07;;
15443;SDS011;7822;48.146;11.576;2023-04-10T03:25:09;3.57;;;3.27;;
15443;SDS011;7822;48.146;11.576;2023-04-10T03:27:38;3.50;;;3.20;;
15443;SDS011;7822;48.146;11.576;2023-04-10T03:30:06;3.67;;;3.37;;
15443;SDS011;7822;48.146;11.576;2023-04-10T03:32:35;3.80;;;3.50;;
15443;SDS011;7822;48.146;11.576;2023-04-10T03:35:04;3.30;;;3.10;;
15443;SDS011;7822;48.146;11.576;2023-04-10T03:37:32;3.70;;;3.40;;
15443;SDS011;7822;48.146;11.576;2023-04-10T03:40:00;3.63;;;3.33;;
15443;SDS011;7822;48.146;11.576;2023-04-10T03:42:29;3.50;;;3.20;;
15443;SDS011;7822;48.146;11.576;2023-04-10T03:44:58;3.87;;;3.57;;
15443;SDS011;7822;48.146;11.576;2023-04-10T03:47:29;3.77;;;3.47;;
15443;SDS011;7822;48.146;11.576;2023-04-10T03:49:57;4.00;;;3.70;;
15443;SDS011;7822;48.146;11.576;2023-04-10T03:52:24;3.50;;;3.20;;
15443;SDS011;7822;48.146;11.576;2023-04-10T03:54:53;3.80;;;3.50;;
15443;SDS011;7822;48.146;11.576;2023-04-10T03:57:21;3.50;;;3.20;;
15443;SDS011;7822;48.146;11.576;2023-04-10T03:59:48;3.80;;;3.50;;
15443;SDS011;7822;48.146;11.576;2023-04-10T04:02:18;3.67;;;3.37;;
15443;SDS011;7822;48.146;11.576;2023-04-10T04:04:46;3.40;;;3.10;;
15443;SDS011;7822;48.146;11.576;2023-04-10T04:07:14;3.10;;;2.90;;
15443;SDS011;7822;48.146;11.576;2023-04-10T04:09:42;3.40;;;3.20;;
15443;SDS011;7822;48.146;11.576;2023-04-10T04:12:09;3.10;;;2.90;;
15443;SDS011;7822;48.146;11.576;2023-04-10T04:14:37;3.80;;;3.50;;
15443;SDS011;7822;48.146;11.576;2023-04-10T04:17:05;3.50;;;3.20;;
15443;SDS011;7822;48.146;11.576;2023-04-10T04:19:34;3.80;;;3.50;;
15443;SDS011;7822;48.146;11.576;2023-04-10T04:22:01;3.07;;;2.87;;
15443;SDS011;7822;48.146;11.576;2023-04-10T04:24:29;3.60;;;3.20;;
15443;SDS011;7822;48.146;11.576;2023-04-10T04:26:57;3.50;;;3.20;;
15443;SDS011;7822;48.146;11.576;2023-04-10T04:29:24;3.37;;;3.10;;
15443;SDS011;7822;48.146;11.576;2023-04-10T04:31:52;3.67;;;3.37;;
15443;SDS011;7822;48.146;11.576;2023-04-10T04:34:20;3.30;;;3.00;;
15443;SDS011;7822;48.146;11.576;2023-04-10T04:36:49;3.27;;;3.07;;
15443;SDS011;7822;48.146;11.576;2023-04-10T04:39:16;3.17;;;2.97;;
15443;SDS011;7822;48.146;11.576;2023-04-10T04:41:44;3.70;;;3.40;;
15443;SDS011;7822;48.146;11.576;2023-04-10T04:44:12;3.27;;;3.03;;
15443;SDS011;7822;48.146;11.576;2023-04-10T04:46:39;3.63;;;3.33;;
15443;SDS011;7822;48.146;11.576;2023-04-10T04:49:09;3.13;;;2.90;;
15443;SDS011;7822;48.146;11.576;2023-04-10T04:51:37;3.17;;;2.87;;
15443;SDS011;7822;48.146;11.576;2023-04-10T04:54:06;3.23;;;3.00;;
15443;SDS011;7822;48.146;11.576;2023-04-10T04:56:34;3.00;;;2.70;;
15443;SDS011;7822;48.146;11.576;2023-04-10T04:59:02;3.20;;;3.00;;
15443;SDS011;7822;48.146;11.576;2023-04-10T05:01:30;3.50;;;3.20;;
15443;SDS011;7822;48.146;11.576;2023-04-10T05:03:57;2.83;;;2.63;;
15443;SDS011;7822;48.146;11.576;2023-04-10T05:06:25;3.30;;;3.10;;
15443;SDS011;7822;48.146;11.576;2023-04-10T05:08:53;3.40;;;3.10;;
15443;SDS011;7822;48.146;11.576;2023-04-10T05:11:22;3.00;;;2.80;;
15443;SDS011;7822;48.146;11.576;2023-04-10T05:13:50;3.30;;;3.00;;
15443;SDS011;7822;48.146;11.576;2023-04-10T05:16:18;3.57;;;3.27;;
15443;SDS011;7822;48.146;11.576;2023-04-10T05:18:45;3.30;;;3.00;;
15443;SDS011;7822;48.146;11.576;2023-04-10T05:21:13;3.77;;;3.47;;
15443;SDS011;7822;48.146;11.576;2023-04-10T05:23:41;3.07;;;2.87;;
15443;SDS011;7822;48.146;11.576;2023-04-10T05:26:08;2.77;;;2.57;;
15443;SDS011;7822;48.146;11.576;2023-04-10T05:28:37;3.33;;;3.10;;
15443;SDS011;7822;48.146;11.576;2023-04-10T05:31:05;3.13;;;2.93;;
15443;SDS011;7822;48.146;11.576;2023-04-10T05:33:33;3.27;;;3.03;;
15443;SDS011;7822;48.146;11.576;2023-04-10T05:36:01;3.30;;;3.03;;
15443;SDS011;7822;48.146;11.576;2023-04-10T05:38:29;3.00;;;2.80;;
15443;SDS011;7822;48.146;11.576;2023-04-10T05:40:56;3.03;;;2.83;;
15443;SDS011;7822;48.146;11.576;2023-04-10T05:43:24;3.03;;;2.83;;
15443;SDS011;7822;48.146;11.576;2023-04-10T05:45:53;3.13;;;2.93;;
15443;SDS011;7822;48.146;11.576;2023-04-10T05:48:20;3.30;;;3.00;;
15443;SDS011;7822;48.146;11.576;2023-04-10T05:50:51;2.87;;;2.67;;
15443;SDS011;7822;48.146;11.576;2023-04-10T05:53:19;3.50;;;3.20;;
15443;SDS011;7822;48.146;11.576;2023-04-10T05:55:48;3.13;;;2.90;;
15443;SDS011;7822;48.146;11.576;2023-04-10T05:58:17;3.33;;;3.13;;
15443;SDS011;7822;48.146;11.576;2023-04-10T06:00:45;3.27;;;3.03;;
15443;SDS011;7822;48.146;11.576;2023-04-10T06:03:14;3.03;;;2.83;;
15443;SDS011;7822;48.146;11.576;2023-04-10T06:05:41;3.00;;;2.80;;
15443;SDS011;7822;48.146;11.576;2023-04-10T06:08:09;2.87;;;2.67;;
15443;SDS011;7822;48.146;11.576;2023-04-10T06:10:37;3.03;;;2.83;;
15443;SDS011;7822;48.146;11.576;2023-04-10T06:13:04;3.03;;;2.83;;
15443;SDS011;7822;48.146;11.576;2023-04-10T06:15:36;3.50;;;3.20;;
15443;SDS011;7822;48.146;11.576;2023-04-10T06:18:03;3.00;;;2.80;;
15443;SDS011;7822;48.146;11.576;2023-04-10T06:20:32;3.27;;;2.97;;
15443;SDS011;7822;48.146;11.576;2023-04-10T06:23:01;3.20;;;3.00;;
15443;SDS011;7822;48.146;11.576;2023-04-10T06:25:29;3.70;;;3.40;;
15443;SDS011;7822;48.146;11.576;2023-04-10T06:27:56;3.53;;;3.23;;
15443;SDS011;7822;48.146;11.576;2023-04-10T06:30:24;3.03;;;2.83;;
15443;SDS011;7822;48.146;11.576;2023-04-10T06:32:52;3.07;;;2.87;;
15443;SDS011;7822;48.146;11.576;2023-04-10T06:35:19;3.43;;;3.20;;
15443;SDS011;7822;48.146;11.576;2023-04-10T06:37:49;2.93;;;2.73;;
15443;SDS011;7822;48.146;11.576;2023-04-10T06:40:16;3.10;;;2.90;;
15443;SDS011;7822;48.146;11.576;2023-04-10T06:42:44;3.50;;;3.20;;
15443;SDS011;7822;48.146;11.576;2023-04-10T06:45:12;3.00;;;2.80;;
15443;SDS011;7822;48.146;11.576;2023-04-10T06:47:39;3.40;;;3.10;;
15443;SDS011;7822;48.146;11.576;2023-04-10T06:50:07;3.10;;;2.90;;
15443;SDS011;7822;48.146;11.576;2023-04-10T06:52:35;2.80;;;2.60;;
15443;SDS011;7822;48.146;11.576;2023-04-10T06:55:05;2.90;;;2.70;;
15443;SDS011;7822;48.146;11.576;2023-04-10T06:57:33;3.20;;;2.90;;
15443;SDS011;7822;48.146;11.576;2023-04-10T07:00:01;3.00;;;2.80;;
15443;SDS011;7822;48.146;11.576;2023-04-10T07:02:29;3.00;;;2.80;;
15443;SDS011;7822;48.146;11.576;2023-04-10T07:04:56;2.90;;;2.70;;
15443;SDS011;7822;48.146;11.576;2023-04-10T07:07:24;3.10;;;2.80;;
15443;SDS011;7822;48.146;11.576;2023-04-10T07:09:51;3.03;;;2.83;;
15443;SDS011;7822;48.146;11.576;2023-04-10T07:12:20;2.90;;;2.70;;
15443;SDS011;7822;48.146;11.576;2023-04-10T07:14:48;2.50;;;2.30;;
15443;SDS011;7822;48.146;11.576;2023-04-10T07:17:16;3.13;;;2.90;;
15443;SDS011;7822;48.146;11.576;2023-04-10T07:19:43;2.93;;;2.73;;
15443;SDS011;7822;48.146;11.576;2023-04-10T07:22:11;2.83;;;2.63;;
15443;SDS011;7822;48.146;11.576;2023-04-10T07:24:39;2.93;;;2.73;;
15443;SDS011;7822;48.146;11.576;2023-04-10T07:27:07;2.90;;;2.70;;
15443;SDS011;7822;48.146;11.576;2023-04-10T07:29:36;2.73;;;2.53;;
15443;SDS011;7822;48.146;11.576;2023-04-10T07:32:04;4.50;;;4.17;;
15443;SDS011;7822;48.146;11.576;2023-04-10T07:34:32;3.93;;;3.63;;
15443;SDS011;7822;48.146;11.576;2023-04-10T07:37:00;5.20;;;4.70;;
15443;SDS011;7822;48.146;11.576;2023-04-10T07:39:28;6.10;;;4.37;;
15443;SDS011;7822;48.146;11.576;2023-04-10T07:41:55;5.50;;;4.90;;
15443;SDS011;7822;48.146;11.576;2023-04-10T07:44:24;5.20;;;4.70;;
15443;SDS011;7822;48.146;11.576;2023-04-10T07:46:55;5.17;;;4.40;;
15443;SDS011;7822;48.146;11.576;2023-04-10T07:49:24;5.30;;;4.80;;
15443;SDS011;7822;48.146;11.576;2023-04-10T07:51:52;5.20;;;4.70;;
15443;SDS011;7822;48.146;11.576;2023-04-10T07:54:19;4.53;;;4.10;;
15443;SDS011;7822;48.146;11.576;2023-04-10T07:56:47;5.43;;;4.93;;
15443;SDS011;7822;48.146;11.576;2023-04-10T07:59:17;5.17;;;4.63;;
15443;SDS011;7822;48.146;11.576;2023-04-10T08:01:45;5.17;;;4.67;;
15443;SDS011;7822;48.146;11.576;2023-04-10T08:04:14;4.90;;;4.50;;
15443;SDS011;7822;48.146;11.576;2023-04-10T08:06:42;5.53;;;5.00;;
15443;SDS011;7822;48.146;11.576;2023-04-10T08:09:10;4.77;;;4.37;;
15443;SDS011;7822;48.146;11.576;2023-04-10T08:11:37;5.37;;;4.87;;
15443;SDS011;7822;48.146;11.576;2023-04-10T08:14:05;5.63;;;4.60;;
15443;SDS011;7822;48.146;11.576;2023-04-10T08:16:33;5.53;;;4.20;;
15443;SDS011;7822;48.146;11.576;2023-04-10T08:19:03;5.00;;;4.50;;
15443;SDS011;7822;48.146;11.576;2023-04-10T08:21:32;5.00;;;4.50;;
15443;SDS011;7822;48.146;11.576;2023-04-10T08:24:00;4.87;;;4.47;;
15443;SDS011;7822;48.146;11.576;2023-04-10T08:26:29;5.43;;;4.50;;
15443;SDS011;7822;48.146;11.576;2023-04-10T08:28:57;4.60;;;4.10;;
15443;SDS011;7822;48.146;11.576;2023-04-10T08:31:26;5.13;;;4.63;;
15443;SDS011;7822;48.146;11.576;2023-04-10T08:33:55;5.07;;;4.67;;
15443;SDS011;7822;48.146;11.576;2023-04-10T08:36:24;4.63;;;4.03;;
15443;SDS011;7822;48.146;11.576;2023-04-10T08:38:54;4.80;;;4.40;;
15443;SDS011;7822;48.146;11.576;2023-04-10T08:41:21;4.57;;;4.17;;
15443;SDS011;7822;48.146;11.576;2023-04-10T08:43:49;4.53;;;4.00;;
15443;SDS011;7822;48.146;11.576;2023-04-10T08:46:17;5.20;;;4.70;;
15443;SDS011;7822;48.146;11.576;2023-04-10T08:48:45;4.03;;;3.63;;
15443;SDS011;7822;48.146;11.576;2023-04-10T08:51:19;4.47;;;4.07;;
15443;SDS011;7822;48.146;11.576;2023-04-10T08:53:52;4.63;;;4.23;;
15443;SDS011;7822;48.146;11.576;2023-04-10T08:56:25;3.97;;;3.57;;
15443;SDS011;7822;48.146;11.576;2023-04-10T08:58:53;4.00;;;3.60;;
15443;SDS011;7822;48.146;11.576;2023-04-10T09:01:21;4.03;;;3.63;;
15443;SDS011;7822;48.146;11.576;2023-04-10T09:03:50;4.73;;;3.90;;
15443;SDS011;7822;48.146;11.576;2023-04-10T09:06:18;4.30;;;3.90;;
15443;SDS011;7822;48.146;11.576;2023-04-10T09:08:45;5.20;;;4.17;;
15443;SDS011;7822;48.146;11.576;2023-04-10T09:11:14;4.40;;;4.00;;
15443;SDS011;7822;48.146;11.576;2023-04-10T09:13:42;4.40;;;4.00;;
15443;SDS011;7822;48.146;11.576;2023-04-10T09:16:12;4.10;;;3.70;;
15443;SDS011;7822;48.146;11.576;2023-04-10T09:18:41;3.97;;;3.57;;
15443;SDS011;7822;48.146;11.576;2023-04-10T09:21:10;4.53;;;4.13;;
15443;SDS011;7822;48.146;11.576;2023-04-10T09:23:40;4.50;;;4.10;;
15443;SDS011;7822;48.146;11.576;2023-04-10T09:26:25;4.30;;;3.73;;
15443;SDS011;7822;48.146;11.576;2023-04-10T09:28:55;4.37;;;3.63;;
15443;SDS011;7822;48.146;11.576;2023-04-10T09:31:27;4.23;;;3.83;;
15443;SDS011;7822;48.146;11.576;2023-04-10T09:34:05;4.03;;;3.63;;
15443;SDS011;7822;48.146;11.576;2023-04-10T09:36:34;4.23;;;3.83;;
15443;SDS011;7822;48.146;11.576;2023-04-10T09:39:03;4.17;;;3.77;;
15443;SDS011;7822;48.146;11.576;2023-04-10T09:41:32;3.83;;;3.43;;
15443;SDS011;7822;48.146;11.576;2023-04-10T09:44:06;4.67;;;4.27;;
15443;SDS011;7822;48.146;11.576;2023-04-10T09:46:36;3.80;;;3.50;;
15443;SDS011;7822;48.146;11.576;2023-04-10T09:49:04;4.20;;;3.80;;
15443;SDS011;7822;48.146;11.576;2023-04-10T09:51:32;4.00;;;3.60;;
15443;SDS011;7822;48.146;11.576;2023-04-10T09:54:02;4.63;;;4.10;;
15443;SDS011;7822;48.146;11.576;2023-04-10T09:56:35;3.57;;;3.27;;
15443;SDS011;7822;48.146;11.576;2023-04-10T09:59:05;3.83;;;3.40;;
15443;SDS011;7822;48.146;11.576;2023-04-10T10:01:34;3.73;;;3.37;;
15443;SDS011;7822;48.146;11.576;2023-04-10T10:04:06;4.23;;;3.83;;
15443;SDS011;7822;48.146;11.576;2023-04-10T10:06:34;4.10;;;3.70;;
15443;SDS011;7822;48.146;11.576;2023-04-10T10:09:05;4.17;;;3.77;;
15443;SDS011;7822;48.146;11.576;2023-04-10T10:11:34;4.30;;;3.90;;
15443;SDS011;7822;48.146;11.576;2023-04-10T10:14:02;4.10;;;3.70;;
15443;SDS011;7822;48.146;11.576;2023-04-10T10:16:36;3.63;;;3.33;;
15443;SDS011;7822;48.146;11.576;2023-04-10T10:19:11;3.77;;;3.47;;
15443;SDS011;7822;48.146;11.576;2023-04-10T10:21:42;3.60;;;3.30;;
15443;SDS011;7822;48.146;11.576;2023-04-10T10:24:11;4.17;;;3.60;;
15443;SDS011;7822;48.146;11.576;2023-04-10T10:26:41;3.67;;;3.37;;
15443;SDS011;7822;48.146;11.576;2023-04-10T10:29:10;3.70;;;3.40;;
15443;SDS011;7822;48.146;11.576;2023-04-10T10:31:40;3.67;;;3.37;;
15443;SDS011;7822;48.146;11.576;2023-04-10T10:34:09;4.20;;;3.57;;
15443;SDS011;7822;48.146;11.576;2023-04-10T10:36:37;3.43;;;3.13;;
15443;SDS011;7822;48.146;11.576;2023-04-10T10:39:11;3.30;;;3.00;;
15443;SDS011;7822;48.146;11.576;2023-04-10T10:41:50;3.30;;;3.00;;
15443;SDS011;7822;48.146;11.576;2023-04-10T10:44:28;3.90;;;3.20;;
15443;SDS011;7822;48.146;11.576;2023-04-10T10:47:05;3.90;;;3.40;;
15443;SDS011;7822;48.146;11.576;2023-04-10T10:52:41;3.33;;;3.03;;
15443;SDS011;7822;48.146;11.576;2023-04-10T10:58:07;3.10;;;2.80;;
15443;SDS011;7822;48.146;11.576;2023-04-10T11:03:35;3.23;;;2.93;;
15443;SDS011;7822;48.146;11.576;2023-04-10T11:06:05;3.10;;;2.80;;
15443;SDS011;7822;48.146;11.576;2023-04-10T11:08:41;2.87;;;2.67;;
15443;SDS011;7822;48.146;11.576;2023-04-10T11:11:12;3.10;;;2.80;;
15443;SDS011;7822;48.146;11.576;2023-04-10T11:16:41;2.80;;;2.60;;
15443;SDS011;7822;48.146;11.576;2023-04-10T11:19:10;2.97;;;2.53;;
15443;SDS011;7822;48.146;11.576;2023-04-10T11:24:29;3.10;;;2.80;;
15443;SDS011;7822;48.146;11.576;2023-04-10T11:27:40;3.27;;;2.97;;
15443;SDS011;7822;48.146;11.576;2023-04-10T11:30:32;3.07;;;2.77;;
15443;SDS011;7822;48.146;11.576;2023-04-10T11:33:02;2.90;;;2.70;;
15443;SDS011;7822;48.146;11.576;2023-04-10T11:35:31;2.80;;;2.60;;
15443;SDS011;7822;48.146;11.576;2023-04-10T11:38:15;2.67;;;2.47;;
15443;SDS011;7822;48.146;11.576;2023-04-10T11:40:53;3.57;;;2.80;;
15443;SDS011;7822;48.146;11.576;2023-04-10T11:43:22;2.80;;;2.50;;
15443;SDS011;7822;48.146;11.576;2023-04-10T11:45:51;2.80;;;2.60;;
15443;SDS011;7822;48.146;11.576;2023-04-10T11:48:26;2.37;;;2.17;;
15443;SDS011;7822;48.146;11.576;2023-04-10T11:50:53;2.40;;;2.20;;
15443;SDS011;7822;48.146;11.576;2023-04-10T11:53:21;2.43;;;2.23;;
15443;SDS011;7822;48.146;11.576;2023-04-10T11:55:49;2.50;;;2.30;;
15443;SDS011;7822;48.146;11.576;2023-04-10T11:58:20;2.93;;;2.67;;
15443;SDS011;7822;48.146;11.576;2023-04-10T12:00:57;2.60;;;2.40;;
15443;SDS011;7822;48.146;11.576;2023-04-10T12:03:35;2.83;;;2.63;;
15443;SDS011;7822;48.146;11.576;2023-04-10T12:06:06;2.60;;;2.40;;
15443;SDS011;7822;48.146;11.576;2023-04-10T12:08:36;2.60;;;2.40;;
15443;SDS011;7822;48.146;11.576;2023-04-10T12:11:05;2.47;;;2.27;;
15443;SDS011;7822;48.146;11.576;2023-04-10T12:13:33;2.50;;;2.30;;
15443;SDS011;7822;48.146;11.576;2023-04-10T12:16:02;2.67;;;2.47;;
15443;SDS011;7822;48.146;11.576;2023-04-10T12:18:32;2.70;;;2.50;;
15443;SDS011;7822;48.146;11.576;2023-04-10T12:21:01;2.40;;;2.20;;
15443;SDS011;7822;48.146;11.576;2023-04-10T12:23:30;2.33;;;2.13;;
15443;SDS011;7822;48.146;11.576;2023-04-10T12:26:05;2.60;;;2.40;;
15443;SDS011;7822;48.146;11.576;2023-04-10T12:28:35;2.67;;;2.47;;
15443;SDS011;7822;48.146;11.576;2023-04-10T12:31:05;2.70;;;2.50;;
15443;SDS011;7822;48.146;11.576;2023-04-10T12:33:34;2.40;;;2.20;;
15443;SDS011;7822;48.146;11.576;2023-04-10T12:36:02;2.83;;;2.50;;
15443;SDS011;7822;48.146;11.576;2023-04-10T12:38:33;2.40;;;2.23;;
15443;SDS011;7822;48.146;11.576;2023-04-10T12:41:02;2.27;;;2.07;;
15443;SDS011;7822;48.146;11.576;2023-04-10T12:43:31;2.37;;;2.17;;
15443;SDS011;7822;48.146;11.576;2023-04-10T12:46:00;2.30;;;2.10;;
15443;SDS011;7822;48.146;11.576;2023-04-10T12:48:30;2.17;;;2.03;;
15443;SDS011;7822;48.146;11.576;2023-04-10T12:50:58;2.40;;;2.20;;
15443;SDS011;7822;48.146;11.576;2023-04-10T12:53:27;2.17;;;1.97;;
15443;SDS011;7822;48.146;11.576;2023-04-10T12:55:55;2.40;;;2.20;;
15443;SDS011;7822;48.146;11.576;2023-04-10T12:58:24;4.13;;;2.07;;
15443;SDS011;7822;48.146;11.576;2023-04-10T13:00:54;2.27;;;2.07;;
15443;SDS011;7822;48.146;11.576;2023-04-10T13:03:22;2.20;;;2.10;;
15443;SDS011;7822;48.146;11.576;2023-04-10T13:05:52;2.53;;;2.33;;
15443;SDS011;7822;48.146;11.576;2023-04-10T13:08:20;2.50;;;2.30;;
15443;SDS011;7822;48.146;11.576;2023-04-10T13:10:48;2.20;;;2.00;;
15443;SDS011;7822;48.146;11.576;2023-04-10T13:13:16;2.13;;;2.03;;
15443;SDS011;7822;48.146;11.576;2023-04-10T13:15:44;2.40;;;2.20;;
15443;SDS011;7822;48.146;11.576;2023-04-10T13:18:11;2.30;;;2.10;;
15443;SDS011;7822;48.146;11.576;2023-04-10T13:20:39;2.37;;;2.17;;
15443;SDS011;7822;48.146;11.576;2023-04-10T13:23:09;2.70;;;2.27;;
15443;SDS011;7822;48.146;11.576;2023-04-10T13:25:37;2.60;;;2.40;;
15443;SDS011;7822;48.146;11.576;2023-04-10T13:28:07;2.57;;;2.37;;
15443;SDS011;7822;48.146;11.576;2023-04-10T13:30:37;2.77;;;2.57;;
15443;SDS011;7822;48.146;11.576;2023-04-10T13:33:05;2.40;;;2.20;;
15443;SDS011;7822;48.146;11.576;2023-04-10T13:35:33;2.50;;;2.30;;
15443;SDS011;7822;48.146;11.576;2023-04-10T13:38:01;2.60;;;2.40;;
15443;SDS011;7822;48.146;11.576;2023-04-10T13:40:30;2.60;;;2.40;;
15443;SDS011;7822;48.146;11.576;2023-04-10T13:42:58;2.37;;;2.13;;
15443;SDS011;7822;48.146;11.576;2023-04-10T13:45:26;2.77;;;2.57;;
15443;SDS011;7822;48.146;11.576;2023-04-10T13:47:53;2.27;;;2.10;;
15443;SDS011;7822;48.146;11.576;2023-04-10T13:50:21;2.80;;;2.60;;
15443;SDS011;7822;48.146;11.576;2023-04-10T13:52:49;2.50;;;2.30;;
15443;SDS011;7822;48.146;11.576;2023-04-10T13:55:18;2.47;;;2.27;;
15443;SDS011;7822;48.146;11.576;2023-04-10T13:57:47;2.87;;;2.60;;
15443;SDS011;7822;48.146;11.576;2023-04-10T14:00:15;2.47;;;2.27;;
15443;SDS011;7822;48.146;11.576;2023-04-10T14:02:44;2.43;;;2.23;;
15443;SDS011;7822;48.146;11.576;2023-04-10T14:05:12;2.03;;;1.83;;
15443;SDS011;7822;48.146;11.576;2023-04-10T14:07:39;2.30;;;2.20;;
15443;SDS011;7822;48.146;11.576;2023-04-10T14:10:07;2.27;;;2.07;;
15443;SDS011;7822;48.146;11.576;2023-04-10T14:12:36;2.33;;;2.13;;
15443;SDS011;7822;48.146;11.576;2023-04-10T14:15:05;2.00;;;1.90;;
15443;SDS011;7822;48.146;11.576;2023-04-10T14:17:34;2.63;;;2.40;;
15443;SDS011;7822;48.146;11.576;2023-04-10T14:20:02;2.27;;;2.07;;
15443;SDS011;7822;48.146;11.576;2023-04-10T14:22:29;2.70;;;2.50;;
15443;SDS011;7822;48.146;11.576;2023-04-10T14:24:57;2.40;;;2.13;;
15443;SDS011;7822;48.146;11.576;2023-04-10T14:27:38;1.90;;;1.80;;
15443;SDS011;7822;48.146;11.576;2023-04-10T14:30:07;2.33;;;2.13;;
15443;SDS011;7822;48.146;11.576;2023-04-10T14:32:36;2.33;;;2.13;;
15443;SDS011;7822;48.146;11.576;2023-04-10T14:35:05;2.40;;;2.20;;
15443;SDS011;7822;48.146;11.576;2023-04-10T14:37:33;2.17;;;2.03;;
15443;SDS011;7822;48.146;11.576;2023-04-10T14:40:01;2.23;;;2.03;;
15443;SDS011;7822;48.146;11.576;2023-04-10T14:42:30;2.50;;;2.30;;
15443;SDS011;7822;48.146;11.576;2023-04-10T14:44:57;2.30;;;2.10;;
15443;SDS011;7822;48.146;11.576;2023-04-10T14:47:27;2.40;;;2.17;;
15443;SDS011;7822;48.146;11.576;2023-04-10T14:49:54;2.70;;;2.50;;
15443;SDS011;7822;48.146;11.576;2023-04-10T14:52:22;2.10;;;1.90;;
15443;SDS011;7822;48.146;11.576;2023-04-10T14:54:50;2.53;;;2.13;;
15443;SDS011;7822;48.146;11.576;2023-04-10T14:57:17;2.30;;;2.10;;
15443;SDS011;7822;48.146;11.576;2023-04-10T14:59:45;2.40;;;2.20;;
15443;SDS011;7822;48.146;11.576;2023-04-10T15:02:13;2.07;;;1.97;;
15443;SDS011;7822;48.146;11.576;2023-04-10T15:04:42;2.17;;;2.00;;
15443;SDS011;7822;48.146;11.576;2023-04-10T15:07:09;1.80;;;1.70;;
15443;SDS011;7822;48.146;11.576;2023-04-10T15:09:37;2.30;;;2.10;;
15443;SDS011;7822;48.146;11.576;2023-04-10T15:12:05;1.97;;;1.77;;
15443;SDS011;7822;48.146;11.576;2023-04-10T15:14:33;2.30;;;2.10;;